Time;durP1;ratioP1;P1;durP2;ratioP2;P2;SDS_P1;SDS_P2;PMS_P1;PMS_P2;Temp;Humidity;BMP_temperature;BMP_pressure;BME280_temperature;BME280_humidity;BME280_pressure;Samples;Min_cycle;Max_cycle;Signal;HPM_P1;HPM_P2
2021/08/01 00:01:28;;;;;;;11.05;6.90;;;;;;;;;;5013682;28;20059;-90
2021/08/01 00:03:54;;;;;;;10.73;6.30;;;;;;;;;;4992683;28;20136;-88
2021/08/01 00:06:21;;;;;;;10.02;6.10;;;;;;;;;;5009258;28;20060;-90
2021/08/01 00:08:50;;;;;;;8.98;6.35;;;;;;;;;;4871594;28;20116;-90
2021/08/01 00:11:18;;;;;;;10.27;7.45;;;;;;;;;;4977493;28;20140;-90
2021/08/01 00:13:45;;;;;;;9.13;6.45;;;;;;;;;;5003069;28;20050;-90
2021/08/01 00:16:14;;;;;;;9.40;5.60;;;;;;;;;;4964043;28;20077;-90
2021/08/01 00:18:40;;;;;;;8.80;5.90;;;;;;;;;;4957269;28;20058;-91
2021/08/01 00:21:06;;;;;;;10.35;6.40;;;;;;;;;;4964406;28;20057;-90
2021/08/01 00:23:34;;;;;;;9.40;5.97;;;;;;;;;;4988031;28;20560;-92
2021/08/01 00:26:00;;;;;;;8.52;6.03;;;;;;;;;;4974653;28;20154;-90
2021/08/01 00:28:27;;;;;;;8.38;5.53;;;;;;;;;;4974136;28;20045;-90
2021/08/01 00:30:53;;;;;;;7.95;5.78;;;;;;;;;;4992751;28;20064;-90
2021/08/01 00:33:20;;;;;;;10.90;6.35;;;;;;;;;;4967042;28;20097;-90
2021/08/01 00:35:46;;;;;;;13.95;7.30;;;;;;;;;;4989747;28;20493;-89
2021/08/01 00:38:12;;;;;;;28.63;14.43;;;;;;;;;;5010241;28;20041;-89
2021/08/01 00:40:39;;;;;;;30.00;14.68;;;;;;;;;;4981992;28;20508;-90
2021/08/01 00:43:05;;;;;;;24.17;12.20;;;;;;;;;;4995664;28;20046;-90
2021/08/01 00:45:31;;;;;;;27.95;14.25;;;;;;;;;;5002454;28;20038;-90
2021/08/01 00:47:57;;;;;;;17.55;10.23;;;;;;;;;;4972935;28;20058;-90
2021/08/01 00:50:24;;;;;;;35.65;15.73;;;;;;;;;;5009428;28;29005;-90
2021/08/01 00:52:51;;;;;;;32.65;15.35;;;;;;;;;;5006960;28;20438;-89
2021/08/01 00:55:18;;;;;;;17.30;8.60;;;;;;;;;;5002775;28;20050;-90
2021/08/01 00:57:44;;;;;;;14.88;8.93;;;;;;;;;;4983773;28;20108;-90
2021/08/01 01:00:45;;;;;;;10.10;6.82;;;;;;;;;;4977759;28;20120;-90
2021/08/01 01:02:59;;;;;;;9.40;6.22;;;;;;;;;;4997004;28;20163;-89
2021/08/01 01:05:34;;;;;;;15.57;8.57;;;;;;;;;;5001609;28;20402;-90
2021/08/01 01:08:08;;;;;;;23.85;11.50;;;;;;;;;;4997102;28;20046;-90
2021/08/01 01:10:41;;;;;;;11.18;6.85;;;;;;;;;;4992017;28;20062;-89
2021/08/01 01:13:11;;;;;;;11.27;6.97;;;;;;;;;;5001857;28;20085;-90
2021/08/01 01:15:45;;;;;;;12.35;6.40;;;;;;;;;;4997482;28;20486;-90
2021/08/01 01:18:26;;;;;;;8.75;5.90;;;;;;;;;;4985476;28;20057;-90
2021/08/01 01:21:11;;;;;;;7.55;6.10;;;;;;;;;;5005364;28;20054;-89
2021/08/01 01:23:55;;;;;;;9.15;5.60;;;;;;;;;;4959009;28;20065;-90
2021/08/01 01:26:36;;;;;;;11.30;6.63;;;;;;;;;;4965409;28;20103;-90
2021/08/01 01:29:20;;;;;;;10.32;6.65;;;;;;;;;;5002373;28;20600;-89
2021/08/01 01:31:47;;;;;;;11.13;7.90;;;;;;;;;;5001286;28;20507;-89
2021/08/01 01:34:32;;;;;;;10.93;7.68;;;;;;;;;;5002938;28;20108;-90
2021/08/01 01:37:01;;;;;;;9.95;7.82;;;;;;;;;;4968476;28;20469;-89
2021/08/01 01:39:30;;;;;;;14.30;9.57;;;;;;;;;;4994690;28;20145;-89
2021/08/01 01:41:57;;;;;;;12.38;10.02;;;;;;;;;;4968278;28;20141;-89
2021/08/01 01:44:24;;;;;;;18.20;12.52;;;;;;;;;;4978780;28;20287;-91
2021/08/01 01:46:50;;;;;;;19.52;12.95;;;;;;;;;;4989403;28;20065;-89
2021/08/01 01:49:17;;;;;;;20.55;13.80;;;;;;;;;;4997046;28;20092;-90
2021/08/01 01:51:44;;;;;;;27.75;16.52;;;;;;;;;;5014506;28;20432;-91
2021/08/01 01:54:11;;;;;;;35.60;22.58;;;;;;;;;;5014556;28;20073;-89
2021/08/01 01:56:38;;;;;;;28.98;19.02;;;;;;;;;;5024593;28;20049;-89
2021/08/01 01:59:05;;;;;;;18.13;14.48;;;;;;;;;;5005681;28;20084;-90
2021/08/01 02:01:32;;;;;;;18.23;14.82;;;;;;;;;;4991125;28;20056;-90
2021/08/01 02:03:59;;;;;;;14.73;12.52;;;;;;;;;;5016507;28;20132;-89
2021/08/01 02:06:25;;;;;;;14.68;11.25;;;;;;;;;;5001761;28;20061;-89
2021/08/01 02:08:55;;;;;;;16.73;13.23;;;;;;;;;;4982161;28;20057;-89
2021/08/01 02:11:23;;;;;;;16.45;14.35;;;;;;;;;;4990355;28;20054;-89
2021/08/01 02:13:53;;;;;;;18.48;13.95;;;;;;;;;;5012315;28;20140;-90
2021/08/01 02:16:20;;;;;;;19.00;14.10;;;;;;;;;;5007483;28;20053;-90
2021/08/01 02:18:52;;;;;;;21.13;16.05;;;;;;;;;;4997196;28;20144;-89
2021/08/01 02:21:21;;;;;;;20.88;15.25;;;;;;;;;;5011782;28;20129;-89
2021/08/01 02:23:48;;;;;;;20.73;15.98;;;;;;;;;;5019508;28;20058;-90
2021/08/01 02:26:16;;;;;;;23.60;17.27;;;;;;;;;;5032423;28;20049;-89
2021/08/01 02:28:43;;;;;;;18.33;15.88;;;;;;;;;;5012134;28;20554;-89
2021/08/01 02:31:10;;;;;;;19.70;14.55;;;;;;;;;;5029883;28;20057;-89
2021/08/01 02:33:36;;;;;;;19.13;15.02;;;;;;;;;;5037068;28;20053;-89
2021/08/01 02:36:05;;;;;;;20.73;14.68;;;;;;;;;;5006208;28;20626;-90
2021/08/01 02:38:31;;;;;;;18.13;14.50;;;;;;;;;;5015872;28;20092;-90
2021/08/01 02:40:58;;;;;;;18.58;14.45;;;;;;;;;;5037675;28;20053;-90
2021/08/01 02:43:27;;;;;;;18.63;14.93;;;;;;;;;;5020805;28;20390;-89
2021/08/01 02:45:53;;;;;;;22.02;16.95;;;;;;;;;;5009102;28;20075;-90
2021/08/01 02:48:22;;;;;;;22.83;16.25;;;;;;;;;;5026547;28;20056;-89
2021/08/01 02:50:53;;;;;;;18.90;14.80;;;;;;;;;;5017048;28;20481;-90
2021/08/01 02:53:19;;;;;;;34.20;21.92;;;;;;;;;;5005667;28;20046;-89
2021/08/01 02:55:48;;;;;;;39.63;23.38;;;;;;;;;;5028887;28;20029;-89
2021/08/01 02:58:17;;;;;;;31.35;19.90;;;;;;;;;;5023666;28;20129;-90
2021/08/01 03:00:46;;;;;;;20.10;15.20;;;;;;;;;;5029331;28;20108;-90
2021/08/01 03:03:14;;;;;;;17.45;14.52;;;;;;;;;;5028085;28;20049;-89
2021/08/01 03:05:42;;;;;;;16.70;14.30;;;;;;;;;;5030501;28;20584;-89
2021/08/01 03:08:12;;;;;;;17.33;14.82;;;;;;;;;;5010989;28;20050;-89
2021/08/01 03:10:43;;;;;;;20.73;15.23;;;;;;;;;;5013361;28;20062;-89
2021/08/01 03:13:10;;;;;;;18.92;14.57;;;;;;;;;;5022428;28;20054;-89
2021/08/01 03:15:36;;;;;;;19.05;14.95;;;;;;;;;;5020013;28;20484;-90
2021/08/01 03:18:02;;;;;;;19.67;15.57;;;;;;;;;;5012698;28;20501;-89
2021/08/01 03:20:29;;;;;;;34.83;21.80;;;;;;;;;;5030283;28;20172;-90
2021/08/01 03:22:55;;;;;;;23.02;17.02;;;;;;;;;;5023872;28;20104;-90
2021/08/01 03:25:21;;;;;;;19.63;15.43;;;;;;;;;;5017309;28;20134;-90
2021/08/01 03:27:47;;;;;;;25.00;16.00;;;;;;;;;;5026310;28;20140;-89
2021/08/01 03:30:14;;;;;;;19.17;15.55;;;;;;;;;;5020389;28;20545;-89
2021/08/01 03:32:40;;;;;;;21.25;16.45;;;;;;;;;;5002836;28;20072;-90
2021/08/01 03:35:07;;;;;;;27.00;18.55;;;;;;;;;;5012788;28;20497;-90
2021/08/01 03:37:33;;;;;;;21.13;16.40;;;;;;;;;;5019401;28;20060;-89
2021/08/01 03:39:59;;;;;;;21.52;17.17;;;;;;;;;;5001889;28;20053;-89
2021/08/01 03:42:25;;;;;;;20.77;16.73;;;;;;;;;;5037447;28;20053;-90
2021/08/01 03:44:52;;;;;;;32.33;20.05;;;;;;;;;;5019056;28;20054;-89
2021/08/01 03:47:18;;;;;;;26.35;17.75;;;;;;;;;;5009930;28;20052;-89
2021/08/01 03:49:44;;;;;;;25.40;17.50;;;;;;;;;;5022460;28;20037;-90
2021/08/01 03:52:12;;;;;;;24.65;16.83;;;;;;;;;;5022905;28;20148;-89
2021/08/01 03:54:40;;;;;;;25.70;17.65;;;;;;;;;;5008860;28;20050;-90
2021/08/01 03:57:07;;;;;;;28.38;17.90;;;;;;;;;;5011290;28;20468;-89
2021/08/01 03:59:38;;;;;;;20.67;15.93;;;;;;;;;;4998146;28;20053;-88
2021/08/01 04:02:04;;;;;;;21.50;15.70;;;;;;;;;;5004574;28;20048;-88
2021/08/01 04:04:30;;;;;;;19.15;15.38;;;;;;;;;;5013729;28;20055;-89
2021/08/01 04:06:56;;;;;;;22.75;16.27;;;;;;;;;;4999823;28;20127;-89
2021/08/01 04:09:25;;;;;;;23.58;16.80;;;;;;;;;;5024395;28;20099;-90
2021/08/01 04:11:52;;;;;;;16.55;14.10;;;;;;;;;;5011865;28;20145;-89
2021/08/01 04:14:18;;;;;;;16.55;13.63;;;;;;;;;;5032146;28;20073;-89
2021/08/01 04:16:45;;;;;;;16.08;12.80;;;;;;;;;;5026671;28;20045;-89
2021/08/01 04:19:13;;;;;;;17.92;13.90;;;;;;;;;;5015504;28;20049;-89
2021/08/01 04:21:44;;;;;;;16.60;14.70;;;;;;;;;;5025021;28;20057;-90
2021/08/01 04:24:11;;;;;;;21.08;16.25;;;;;;;;;;5030181;28;20060;-89
2021/08/01 04:26:38;;;;;;;17.42;13.90;;;;;;;;;;5008830;28;20072;-89
2021/08/01 04:29:05;;;;;;;16.00;13.93;;;;;;;;;;5003600;28;20049;-89
2021/08/01 04:31:31;;;;;;;19.02;14.82;;;;;;;;;;5028366;28;20132;-89
2021/08/01 04:33:57;;;;;;;21.25;15.23;;;;;;;;;;5011364;28;20492;-90
2021/08/01 04:36:24;;;;;;;20.90;16.25;;;;;;;;;;5028600;28;20060;-90
2021/08/01 04:38:50;;;;;;;22.23;16.13;;;;;;;;;;5024092;28;20045;-90
2021/08/01 04:41:16;;;;;;;24.65;16.55;;;;;;;;;;5007972;28;20562;-89
2021/08/01 04:43:42;;;;;;;17.75;13.88;;;;;;;;;;5011556;28;20060;-88
2021/08/01 04:46:09;;;;;;;16.15;13.50;;;;;;;;;;4995546;28;20052;-89
2021/08/01 04:48:35;;;;;;;16.38;13.65;;;;;;;;;;5018256;28;20077;-88
2021/08/01 04:51:01;;;;;;;16.88;14.27;;;;;;;;;;5038407;28;20061;-89
2021/08/01 04:53:27;;;;;;;14.57;12.15;;;;;;;;;;5008558;28;20505;-89
2021/08/01 04:55:53;;;;;;;14.10;12.52;;;;;;;;;;5017553;28;20057;-88
2021/08/01 04:58:23;;;;;;;14.77;12.18;;;;;;;;;;5019827;28;20164;-88
2021/08/01 05:00:49;;;;;;;13.82;12.40;;;;;;;;;;5013991;28;20045;-89
2021/08/01 05:03:16;;;;;;;13.32;11.57;;;;;;;;;;5009359;28;20141;-89
2021/08/01 05:05:42;;;;;;;14.35;12.25;;;;;;;;;;5028777;28;20050;-88
2021/08/01 05:08:08;;;;;;;14.10;11.80;;;;;;;;;;5031245;28;20045;-88
2021/08/01 05:10:34;;;;;;;15.77;12.70;;;;;;;;;;5033135;28;20473;-89
2021/08/01 05:13:05;;;;;;;13.02;11.55;;;;;;;;;;5001144;28;20053;-88
2021/08/01 05:15:31;;;;;;;13.48;11.55;;;;;;;;;;4995539;28;20133;-89
2021/08/01 05:17:57;;;;;;;12.55;11.25;;;;;;;;;;5021906;28;20140;-88
2021/08/01 05:20:23;;;;;;;14.63;11.98;;;;;;;;;;5031866;28;20045;-88
2021/08/01 05:22:50;;;;;;;13.60;12.18;;;;;;;;;;5030145;28;20041;-88
2021/08/01 05:25:16;;;;;;;13.73;12.27;;;;;;;;;;5029661;28;20041;-88
2021/08/01 05:27:42;;;;;;;12.85;11.43;;;;;;;;;;5017809;28;20046;-87
2021/08/01 05:30:09;;;;;;;13.68;11.57;;;;;;;;;;5032513;28;20050;-89
2021/08/01 05:32:35;;;;;;;12.18;10.88;;;;;;;;;;5025831;28;20141;-87
2021/08/01 05:35:02;;;;;;;13.23;10.65;;;;;;;;;;5034568;28;20050;-89
2021/08/01 05:37:28;;;;;;;11.70;10.50;;;;;;;;;;5016857;28;20050;-89
2021/08/01 05:39:54;;;;;;;11.43;9.77;;;;;;;;;;5014831;28;20049;-88
2021/08/01 05:42:20;;;;;;;11.18;9.25;;;;;;;;;;5019088;28;20045;-88
2021/08/01 05:44:46;;;;;;;10.77;9.68;;;;;;;;;;5032882;28;20049;-89
2021/08/01 05:47:13;;;;;;;10.25;9.15;;;;;;;;;;5032894;28;20125;-87
2021/08/01 05:49:39;;;;;;;10.27;9.23;;;;;;;;;;5011394;28;20038;-88
2021/08/01 05:52:05;;;;;;;10.10;9.00;;;;;;;;;;5004009;28;20512;-87
2021/08/01 05:54:31;;;;;;;10.52;9.43;;;;;;;;;;5027614;28;20099;-89
2021/08/01 05:56:58;;;;;;;11.20;9.38;;;;;;;;;;5014990;28;20049;-88
2021/08/01 05:59:24;;;;;;;10.35;8.90;;;;;;;;;;4996214;28;20060;-88
2021/08/01 06:01:50;;;;;;;9.90;8.90;;;;;;;;;;5032938;28;20508;-88
2021/08/01 06:04:17;;;;;;;10.13;9.05;;;;;;;;;;5027415;28;20513;-89
2021/08/01 06:06:43;;;;;;;11.27;8.90;;;;;;;;;;5027951;28;20070;-89
2021/08/01 06:09:09;;;;;;;9.70;8.52;;;;;;;;;;4996596;28;20064;-88
2021/08/01 06:11:35;;;;;;;11.48;9.43;;;;;;;;;;5005760;28;20061;-88
2021/08/01 06:14:02;;;;;;;11.18;9.18;;;;;;;;;;5028397;28;20139;-89
2021/08/01 06:16:28;;;;;;;10.70;9.27;;;;;;;;;;5020305;28;20400;-88
2021/08/01 06:18:54;;;;;;;18.20;12.80;;;;;;;;;;5010529;28;22424;-88
2021/08/01 06:21:21;;;;;;;16.25;11.88;;;;;;;;;;5028144;28;20050;-88
2021/08/01 06:23:48;;;;;;;18.17;13.55;;;;;;;;;;5024813;28;20100;-90
2021/08/01 06:26:15;;;;;;;15.90;12.88;;;;;;;;;;5013976;28;20065;-89
2021/08/01 06:28:42;;;;;;;17.92;13.07;;;;;;;;;;5009124;28;20493;-88
2021/08/01 06:31:09;;;;;;;17.65;14.05;;;;;;;;;;5027769;28;20111;-89
2021/08/01 06:33:35;;;;;;;18.75;15.55;;;;;;;;;;5029339;28;20057;-88
2021/08/01 06:36:09;;;;;;;18.02;15.05;;;;;;;;;;5013258;28;20050;-88
2021/08/01 06:38:37;;;;;;;16.50;14.57;;;;;;;;;;5016297;28;20054;-88
2021/08/01 06:41:04;;;;;;;19.20;15.13;;;;;;;;;;5023354;28;20058;-88
2021/08/01 06:43:30;;;;;;;16.92;14.95;;;;;;;;;;5012821;28;20057;-89
2021/08/01 06:45:56;;;;;;;15.93;13.95;;;;;;;;;;5023460;28;20057;-89
2021/08/01 06:48:23;;;;;;;18.55;14.65;;;;;;;;;;5023526;28;20128;-89
2021/08/01 06:50:49;;;;;;;18.70;14.93;;;;;;;;;;5018652;28;20060;-90
2021/08/01 06:53:16;;;;;;;18.80;15.05;;;;;;;;;;5030472;28;20053;-89
2021/08/01 06:55:42;;;;;;;17.23;14.95;;;;;;;;;;5026377;28;20121;-88
2021/08/01 06:58:08;;;;;;;17.45;14.85;;;;;;;;;;5014585;28;20315;-90
2021/08/01 07:00:35;;;;;;;15.68;13.65;;;;;;;;;;5014214;28;20129;-88
2021/08/01 07:03:02;;;;;;;15.15;13.05;;;;;;;;;;5021772;28;20547;-88
2021/08/01 07:05:29;;;;;;;14.57;12.68;;;;;;;;;;5015841;28;20042;-89
2021/08/01 07:07:56;;;;;;;16.35;13.73;;;;;;;;;;5010386;28;20061;-90
2021/08/01 07:10:23;;;;;;;16.58;13.48;;;;;;;;;;4997579;28;20476;-89
2021/08/01 07:12:49;;;;;;;15.50;13.45;;;;;;;;;;5006847;28;20763;-90
2021/08/01 07:15:17;;;;;;;14.13;12.20;;;;;;;;;;4978851;28;20440;-90
2021/08/01 07:17:44;;;;;;;15.98;11.27;;;;;;;;;;4970249;28;20070;-91
2021/08/01 07:20:13;;;;;;;15.05;12.07;;;;;;;;;;4974588;28;20041;-90
2021/08/01 07:22:40;;;;;;;14.00;11.52;;;;;;;;;;5013280;28;20052;-90
2021/08/01 07:25:09;;;;;;;7.35;6.00;;;;;;;;;;5019792;28;20128;-88
2021/08/01 07:27:36;;;;;;;7.75;5.65;;;;;;;;;;5028393;28;20052;-89
2021/08/01 07:30:22;;;;;;;8.00;4.93;;;;;;;;;;5001558;28;20056;-89
2021/08/01 07:32:48;;;;;;;6.20;3.67;;;;;;;;;;4963337;28;20116;-91
2021/08/01 07:35:15;;;;;;;6.80;4.35;;;;;;;;;;4995773;28;20432;-91
2021/08/01 07:37:41;;;;;;;6.03;4.10;;;;;;;;;;5003882;28;20401;-91
2021/08/01 07:40:08;;;;;;;5.45;4.00;;;;;;;;;;5013801;28;20050;-90
2021/08/01 07:42:34;;;;;;;7.50;4.22;;;;;;;;;;5023584;28;20064;-92
2021/08/01 07:45:04;;;;;;;5.35;3.85;;;;;;;;;;5011913;28;20041;-93
2021/08/01 07:47:33;;;;;;;5.47;3.60;;;;;;;;;;4996931;28;20069;-94
2021/08/01 07:50:01;;;;;;;8.95;4.43;;;;;;;;;;5001606;28;20054;-90
2021/08/01 07:52:27;;;;;;;5.15;3.55;;;;;;;;;;5028616;28;20069;-91
2021/08/01 07:54:53;;;;;;;7.85;4.57;;;;;;;;;;5023360;28;20049;-90
2021/08/01 07:57:22;;;;;;;5.55;3.95;;;;;;;;;;5025258;28;20053;-89
2021/08/01 07:59:49;;;;;;;7.50;3.90;;;;;;;;;;5029799;28;20049;-90
2021/08/01 08:02:17;;;;;;;6.30;3.75;;;;;;;;;;5033681;28;20094;-90
2021/08/01 08:04:43;;;;;;;5.32;3.50;;;;;;;;;;5015422;28;20604;-89
2021/08/01 08:07:09;;;;;;;4.32;2.97;;;;;;;;;;5022410;28;20060;-89
2021/08/01 08:09:36;;;;;;;5.88;3.70;;;;;;;;;;5013283;28;20150;-90
2021/08/01 08:12:02;;;;;;;5.15;3.60;;;;;;;;;;5031356;28;20053;-88
2021/08/01 08:14:28;;;;;;;5.93;3.58;;;;;;;;;;5023215;28;20061;-88
2021/08/01 08:16:55;;;;;;;5.40;3.60;;;;;;;;;;5028967;28;20065;-87
2021/08/01 08:19:21;;;;;;;6.72;3.97;;;;;;;;;;5021232;28;20050;-88
2021/08/01 08:21:47;;;;;;;5.15;3.00;;;;;;;;;;5031026;28;21612;-89
2021/08/01 08:24:13;;;;;;;4.45;2.90;;;;;;;;;;5007077;28;20834;-87
2021/08/01 08:26:40;;;;;;;8.60;2.95;;;;;;;;;;5024126;28;20051;-86
2021/08/01 08:29:06;;;;;;;4.63;2.80;;;;;;;;;;5010826;28;20046;-87
2021/08/01 08:31:32;;;;;;;4.68;3.25;;;;;;;;;;5026047;28;20508;-86
2021/08/01 08:33:58;;;;;;;6.85;2.90;;;;;;;;;;5021869;28;20080;-87
2021/08/01 08:36:24;;;;;;;5.13;2.70;;;;;;;;;;5029166;28;20053;-87
2021/08/01 08:38:50;;;;;;;6.70;2.90;;;;;;;;;;5027976;28;20519;-87
2021/08/01 08:41:17;;;;;;;5.63;3.00;;;;;;;;;;5033568;28;20445;-87
2021/08/01 08:43:43;;;;;;;4.68;2.60;;;;;;;;;;5034249;28;20102;-87
2021/08/01 08:46:10;;;;;;;3.20;1.80;;;;;;;;;;5012597;28;20045;-87
2021/08/01 08:48:38;;;;;;;2.67;1.33;;;;;;;;;;5029801;28;20049;-87
2021/08/01 08:51:05;;;;;;;2.08;1.20;;;;;;;;;;5010703;28;20103;-86
2021/08/01 08:53:32;;;;;;;3.25;1.30;;;;;;;;;;5006136;28;20057;-87
2021/08/01 08:55:58;;;;;;;3.65;1.50;;;;;;;;;;5010918;28;20123;-86
2021/08/01 08:58:26;;;;;;;2.33;1.50;;;;;;;;;;5025635;28;20077;-87
2021/08/01 09:00:53;;;;;;;3.95;1.40;;;;;;;;;;5030514;28;20553;-87
2021/08/01 09:03:19;;;;;;;2.85;1.00;;;;;;;;;;5024994;28;20064;-86
2021/08/01 09:05:45;;;;;;;1.40;0.70;;;;;;;;;;5005776;28;20108;-86
2021/08/01 09:08:11;;;;;;;2.10;0.90;;;;;;;;;;5019302;28;20062;-88
2021/08/01 09:10:38;;;;;;;2.35;1.00;;;;;;;;;;5029957;28;20502;-87
2021/08/01 09:13:04;;;;;;;2.22;0.85;;;;;;;;;;5022137;28;20064;-87
2021/08/01 09:15:30;;;;;;;1.88;0.80;;;;;;;;;;5012099;28;20041;-87
2021/08/01 09:18:00;;;;;;;1.63;0.80;;;;;;;;;;5015125;28;20054;-88
2021/08/01 09:20:26;;;;;;;2.65;1.00;;;;;;;;;;5010766;28;20528;-88
2021/08/01 09:23:02;;;;;;;4.28;1.13;;;;;;;;;;5015519;28;20121;-87
2021/08/01 09:25:29;;;;;;;1.13;1.00;;;;;;;;;;5003197;28;20050;-88
2021/08/01 09:28:07;;;;;;;1.98;1.02;;;;;;;;;;5017064;28;20169;-89
2021/08/01 09:30:44;;;;;;;1.27;0.95;;;;;;;;;;5033249;28;20080;-88
2021/08/01 09:33:11;;;;;;;2.33;1.10;;;;;;;;;;4986287;28;20045;-88
2021/08/01 09:35:39;;;;;;;2.95;1.02;;;;;;;;;;4995918;28;20049;-87
2021/08/01 09:38:05;;;;;;;1.05;0.80;;;;;;;;;;5020726;28;20129;-87
2021/08/01 09:40:33;;;;;;;0.70;0.70;;;;;;;;;;5008355;28;20065;-87
2021/08/01 09:43:21;;;;;;;1.45;0.80;;;;;;;;;;5022703;28;20053;-88
2021/08/01 09:45:58;;;;;;;2.35;1.00;;;;;;;;;;5003294;28;20135;-88
2021/08/01 09:48:24;;;;;;;1.30;0.98;;;;;;;;;;5030176;28;20053;-88
2021/08/01 09:51:06;;;;;;;2.30;0.90;;;;;;;;;;5012071;28;20057;-89
2021/08/01 09:53:33;;;;;;;1.95;0.80;;;;;;;;;;5012605;28;20049;-88
2021/08/01 09:56:11;;;;;;;2.67;1.05;;;;;;;;;;5010274;28;20072;-89
2021/08/01 09:58:38;;;;;;;2.78;1.00;;;;;;;;;;4997784;28;20140;-88
2021/08/01 10:01:04;;;;;;;1.85;0.98;;;;;;;;;;5025503;28;20053;-87
2021/08/01 10:03:38;;;;;;;2.88;1.30;;;;;;;;;;5011057;28;20541;-88
2021/08/01 10:06:10;;;;;;;3.17;1.00;;;;;;;;;;4999489;28;20075;-88
2021/08/01 10:08:40;;;;;;;2.05;1.20;;;;;;;;;;5006741;28;20053;-88
2021/08/01 10:11:26;;;;;;;1.90;1.38;;;;;;;;;;5005371;28;20050;-87
2021/08/01 10:13:53;;;;;;;1.58;1.10;;;;;;;;;;5001916;28;20069;-87
2021/08/01 10:16:20;;;;;;;5.40;1.77;;;;;;;;;;5026273;28;20058;-87
2021/08/01 10:18:48;;;;;;;2.90;1.50;;;;;;;;;;5001137;28;20054;-88
2021/08/01 10:21:24;;;;;;;1.60;1.20;;;;;;;;;;5007463;28;20049;-88
2021/08/01 10:23:54;;;;;;;2.22;1.13;;;;;;;;;;5008963;28;20046;-89
2021/08/01 10:26:20;;;;;;;2.28;1.20;;;;;;;;;;5008768;28;20045;-89
2021/08/01 10:28:51;;;;;;;2.22;1.30;;;;;;;;;;5013486;28;20057;-88
2021/08/01 10:31:21;;;;;;;2.40;1.45;;;;;;;;;;5025735;28;20076;-89
2021/08/01 10:33:58;;;;;;;3.80;1.40;;;;;;;;;;5022320;28;20072;-86
2021/08/01 10:36:26;;;;;;;4.47;1.45;;;;;;;;;;5026931;28;20129;-89
2021/08/01 10:38:53;;;;;;;2.25;1.60;;;;;;;;;;5014510;28;20096;-88
2021/08/01 10:41:22;;;;;;;3.33;1.40;;;;;;;;;;5038692;28;20053;-88
2021/08/01 10:43:48;;;;;;;3.22;1.30;;;;;;;;;;5028417;28;20064;-87
2021/08/01 10:46:18;;;;;;;4.00;1.40;;;;;;;;;;5008290;28;20092;-88
2021/08/01 10:48:45;;;;;;;3.05;1.63;;;;;;;;;;5020331;28;20037;-89
2021/08/01 10:51:12;;;;;;;2.28;1.40;;;;;;;;;;5023319;28;20076;-88
2021/08/01 10:53:38;;;;;;;2.22;1.45;;;;;;;;;;5030220;28;20046;-89
2021/08/01 10:56:07;;;;;;;3.13;1.33;;;;;;;;;;5013620;28;20555;-87
2021/08/01 10:58:37;;;;;;;1.95;1.10;;;;;;;;;;5003667;28;20128;-87
2021/08/01 11:01:04;;;;;;;1.80;1.30;;;;;;;;;;5012928;28;20138;-88
2021/08/01 11:03:31;;;;;;;2.33;1.30;;;;;;;;;;4998552;28;20053;-88
2021/08/01 11:05:57;;;;;;;2.40;1.50;;;;;;;;;;5009252;28;20057;-87
2021/08/01 11:08:23;;;;;;;2.78;1.40;;;;;;;;;;4994344;28;20097;-88
2021/08/01 11:11:13;;;;;;;3.83;1.58;;;;;;;;;;4996476;28;20061;-88
2021/08/01 11:13:46;;;;;;;4.00;1.52;;;;;;;;;;4996152;28;20052;-87
2021/08/01 11:16:14;;;;;;;4.13;1.73;;;;;;;;;;5011904;28;20060;-87
2021/08/01 11:18:41;;;;;;;3.95;1.50;;;;;;;;;;5009992;28;20057;-87
2021/08/01 11:21:09;;;;;;;2.58;1.50;;;;;;;;;;5011691;28;20061;-87
2021/08/01 11:24:01;;;;;;;2.95;1.50;;;;;;;;;;5015094;28;20144;-86
2021/08/01 11:26:28;;;;;;;3.22;1.70;;;;;;;;;;5005137;28;20389;-89
2021/08/01 11:29:08;;;;;;;2.53;1.60;;;;;;;;;;5007896;28;20056;-88
2021/08/01 11:31:35;;;;;;;4.15;1.90;;;;;;;;;;5005271;28;20078;-89
2021/08/01 11:34:17;;;;;;;3.45;1.95;;;;;;;;;;5013689;28;20061;-89
2021/08/01 11:36:43;;;;;;;3.13;1.80;;;;;;;;;;4975077;28;20050;-88
2021/08/01 11:39:10;;;;;;;2.72;1.30;;;;;;;;;;5009447;28;20133;-87
2021/08/01 11:41:40;;;;;;;2.45;1.40;;;;;;;;;;5004986;28;20413;-87
2021/08/01 11:44:15;;;;;;;1.58;1.27;;;;;;;;;;4998392;28;20057;-89
2021/08/01 11:46:54;;;;;;;2.58;1.55;;;;;;;;;;5015936;28;20045;-86
2021/08/01 11:49:21;;;;;;;3.97;1.40;;;;;;;;;;5014453;28;20462;-89
2021/08/01 11:51:51;;;;;;;4.68;1.40;;;;;;;;;;5026592;28;20497;-88
2021/08/01 11:54:18;;;;;;;3.00;1.60;;;;;;;;;;5029455;28;20052;-89
2021/08/01 11:56:45;;;;;;;2.97;1.50;;;;;;;;;;5000902;28;20062;-88
2021/08/01 11:59:15;;;;;;;4.18;1.40;;;;;;;;;;5017386;28;20482;-88
2021/08/01 12:01:41;;;;;;;4.32;1.70;;;;;;;;;;5028114;28;20489;-90
2021/08/01 12:04:08;;;;;;;3.10;1.48;;;;;;;;;;5024278;28;20102;-89
2021/08/01 12:06:37;;;;;;;5.15;1.52;;;;;;;;;;5003668;28;20049;-87
2021/08/01 12:09:16;;;;;;;4.80;1.55;;;;;;;;;;5009677;28;20437;-86
2021/08/01 12:11:43;;;;;;;2.97;1.60;;;;;;;;;;5007506;28;20136;-89
2021/08/01 12:14:10;;;;;;;1.85;1.30;;;;;;;;;;5015760;28;20120;-89
2021/08/01 12:16:37;;;;;;;5.78;2.25;;;;;;;;;;5000669;28;20497;-88
2021/08/01 12:19:14;;;;;;;4.10;1.70;;;;;;;;;;5006357;28;20082;-88
2021/08/01 12:21:41;;;;;;;2.88;1.58;;;;;;;;;;5003232;28;20435;-88
2021/08/01 12:24:25;;;;;;;4.30;1.60;;;;;;;;;;5017713;28;20061;-88
2021/08/01 12:26:51;;;;;;;4.25;1.73;;;;;;;;;;5008663;28;20069;-88
2021/08/01 12:29:27;;;;;;;3.63;1.60;;;;;;;;;;5008985;28;20484;-87
2021/08/01 12:31:53;;;;;;;3.88;1.60;;;;;;;;;;5010154;28;20057;-88
2021/08/01 12:34:23;;;;;;;3.38;1.70;;;;;;;;;;5010085;28;20045;-88
2021/08/01 12:36:49;;;;;;;2.55;1.50;;;;;;;;;;5010181;28;20413;-90
2021/08/01 12:39:18;;;;;;;3.08;1.70;;;;;;;;;;5024196;28;20046;-88
2021/08/01 12:41:45;;;;;;;4.10;1.90;;;;;;;;;;5025124;28;20481;-89
2021/08/01 12:44:15;;;;;;;2.92;1.70;;;;;;;;;;5008218;28;20062;-88
2021/08/01 12:46:41;;;;;;;2.78;1.55;;;;;;;;;;5025018;28;20477;-88
2021/08/01 12:49:07;;;;;;;3.55;1.60;;;;;;;;;;5007742;28;20046;-88
2021/08/01 12:51:33;;;;;;;4.28;1.70;;;;;;;;;;5010411;28;20045;-87
2021/08/01 12:54:00;;;;;;;3.83;1.60;;;;;;;;;;5022722;28;20049;-89
2021/08/01 12:56:26;;;;;;;3.60;1.60;;;;;;;;;;5008672;28;20069;-88
2021/08/01 12:58:52;;;;;;;3.35;1.55;;;;;;;;;;5007123;28;20052;-89
2021/08/01 13:01:18;;;;;;;5.25;1.58;;;;;;;;;;5017304;28;20060;-87
2021/08/01 13:03:46;;;;;;;2.53;1.55;;;;;;;;;;5006827;28;20120;-89
2021/08/01 13:06:17;;;;;;;3.72;1.40;;;;;;;;;;5023133;28;20069;-89
2021/08/01 13:08:46;;;;;;;3.85;1.52;;;;;;;;;;5008353;28;20421;-87
2021/08/01 13:11:13;;;;;;;5.28;1.40;;;;;;;;;;5010066;28;20090;-87
2021/08/01 13:13:53;;;;;;;2.70;1.50;;;;;;;;;;4999438;28;20108;-88
2021/08/01 13:16:19;;;;;;;2.65;1.40;;;;;;;;;;4996648;28;20052;-88
2021/08/01 13:18:45;;;;;;;4.50;1.85;;;;;;;;;;5000238;28;20132;-88
2021/08/01 13:21:14;;;;;;;2.97;1.60;;;;;;;;;;5004972;28;20060;-88
2021/08/01 13:23:42;;;;;;;4.18;1.55;;;;;;;;;;4992926;28;20074;-89
2021/08/01 13:26:17;;;;;;;3.72;1.55;;;;;;;;;;4952883;28;20073;-88
2021/08/01 13:28:43;;;;;;;;;;;;;;;;;;4974577;28;20054;-88
2021/08/01 13:31:11;;;;;;;3.78;1.75;;;;;;;;;;5002033;28;19964;-87
2021/08/01 13:33:40;;;;;;;3.03;2.00;;;;;;;;;;4962767;28;20046;-89
2021/08/01 13:36:09;;;;;;;3.92;1.98;;;;;;;;;;4981086;28;20096;-87
2021/08/01 13:38:37;;;;;;;6.38;2.30;;;;;;;;;;4977951;28;20517;-89
2021/08/01 13:41:18;;;;;;;5.35;1.75;;;;;;;;;;4945087;28;20133;-88
2021/08/01 13:44:04;;;;;;;5.25;1.83;;;;;;;;;;4923043;28;20065;-89
2021/08/01 13:46:30;;;;;;;4.13;1.50;;;;;;;;;;4970427;28;20054;-89
2021/08/01 13:48:56;;;;;;;3.28;1.50;;;;;;;;;;4961786;28;20936;-89
2021/08/01 13:51:23;;;;;;;3.70;1.40;;;;;;;;;;4949325;28;20518;-87
2021/08/01 13:53:49;;;;;;;3.53;1.50;;;;;;;;;;4944933;28;20224;-87
2021/08/01 13:56:15;;;;;;;3.20;1.52;;;;;;;;;;4916766;28;20134;-89
2021/08/01 13:58:41;;;;;;;3.30;1.40;;;;;;;;;;4938530;28;20109;-87
2021/08/01 14:01:08;;;;;;;5.55;1.73;;;;;;;;;;4990606;28;20068;-88
2021/08/01 14:03:36;;;;;;;2.42;1.55;;;;;;;;;;5015835;28;20092;-88
2021/08/01 14:06:02;;;;;;;5.55;1.30;;;;;;;;;;4991105;28;20049;-88
2021/08/01 14:08:29;;;;;;;2.95;1.40;;;;;;;;;;4993360;28;20049;-89
2021/08/01 14:10:56;;;;;;;3.58;1.60;;;;;;;;;;5020772;28;20061;-88
2021/08/01 14:13:24;;;;;;;5.90;1.90;;;;;;;;;;5035557;28;20054;-87
2021/08/01 14:15:50;;;;;;;5.90;2.15;;;;;;;;;;5032464;28;20054;-88
2021/08/01 14:18:16;;;;;;;6.25;2.08;;;;;;;;;;5019825;28;20129;-88
2021/08/01 14:20:42;;;;;;;5.53;1.80;;;;;;;;;;5032597;28;20092;-87
2021/08/01 14:23:09;;;;;;;5.63;1.60;;;;;;;;;;5017484;28;20551;-89
2021/08/01 14:25:36;;;;;;;5.82;1.90;;;;;;;;;;5037186;28;20076;-89
2021/08/01 14:28:02;;;;;;;4.90;1.90;;;;;;;;;;5019974;28;20045;-88
2021/08/01 14:30:28;;;;;;;5.75;2.20;;;;;;;;;;5026562;28;20053;-88
2021/08/01 14:32:56;;;;;;;3.88;1.77;;;;;;;;;;5020034;28;20080;-89
2021/08/01 14:35:23;;;;;;;5.43;1.98;;;;;;;;;;5020740;28;20390;-88
2021/08/01 14:37:49;;;;;;;5.93;1.70;;;;;;;;;;5014053;28;20110;-88
2021/08/01 14:40:19;;;;;;;4.10;1.65;;;;;;;;;;5003441;28;20623;-87